Terminal Aerodrome Forecast
Issued by NWS

Home | Current Version | Previous Version | Graphics & Text | Print | Product List | Glossary On
Versions: 1 2 3 4 5 6 7 8 9 10 11 12 13 14 15 16 17 18 19 20 21
000
FTUS43 KGRB 201252 AAA
TAFMTW
TAF AMD
KMTW 201252Z 2013/2112 35003KT 5SM BR OVC005
      TEMPO 2013/2014 2SM -FZRA OVC002
     FM201500 VRB03KT 4SM -DZ BR OVC003
     FM201800 23006KT 5SM BR OVC006
     FM202100 27009G17KT P6SM OVC012
     FM210000 28010G18KT P6SM SCT025=

USA.gov is the U.S. government's official web portal to all federal, state and local government web resources and services.